sensor_id;sensor_type;location;lat;lon;timestamp;P1;durP1;ratioP1;P2;durP2;ratioP2
42904;SDS011;28550;51.228;4.528;2023-04-25T00:00:54;22.77;;;7.63;;
42904;SDS011;28550;51.228;4.528;2023-04-25T00:03:21;21.90;;;7.40;;
42904;SDS011;28550;51.228;4.528;2023-04-25T00:05:53;21.45;;;7.57;;
42904;SDS011;28550;51.228;4.528;2023-04-25T00:08:21;24.92;;;8.20;;
42904;SDS011;28550;51.228;4.528;2023-04-25T00:10:47;14.70;;;6.50;;
42904;SDS011;28550;51.228;4.528;2023-04-25T00:13:14;22.65;;;7.18;;
42904;SDS011;28550;51.228;4.528;2023-04-25T00:15:43;21.75;;;7.30;;
42904;SDS011;28550;51.228;4.528;2023-04-25T00:18:19;24.55;;;7.25;;
42904;SDS011;28550;51.228;4.528;2023-04-25T00:20:47;29.05;;;7.65;;
42904;SDS011;28550;51.228;4.528;2023-04-25T00:23:13;18.05;;;6.80;;
42904;SDS011;28550;51.228;4.528;2023-04-25T00:25:49;19.70;;;7.72;;
42904;SDS011;28550;51.228;4.528;2023-04-25T00:28:24;24.42;;;7.50;;
42904;SDS011;28550;51.228;4.528;2023-04-25T00:30:54;23.88;;;8.38;;
42904;SDS011;28550;51.228;4.528;2023-04-25T00:33:20;23.02;;;8.05;;
42904;SDS011;28550;51.228;4.528;2023-04-25T00:35:46;25.65;;;7.32;;
42904;SDS011;28550;51.228;4.528;2023-04-25T00:38:11;22.95;;;7.68;;
42904;SDS011;28550;51.228;4.528;2023-04-25T00:40:40;21.85;;;7.95;;
42904;SDS011;28550;51.228;4.528;2023-04-25T00:43:08;25.33;;;7.22;;
42904;SDS011;28550;51.228;4.528;2023-04-25T00:45:40;21.27;;;8.00;;
42904;SDS011;28550;51.228;4.528;2023-04-25T00:48:08;26.17;;;7.10;;
42904;SDS011;28550;51.228;4.528;2023-04-25T00:50:39;22.13;;;7.28;;
42904;SDS011;28550;51.228;4.528;2023-04-25T00:53:06;21.17;;;7.07;;
42904;SDS011;28550;51.228;4.528;2023-04-25T00:55:32;17.20;;;7.43;;
42904;SDS011;28550;51.228;4.528;2023-04-25T00:58:01;21.88;;;6.95;;
42904;SDS011;28550;51.228;4.528;2023-04-25T01:00:31;17.20;;;6.80;;
42904;SDS011;28550;51.228;4.528;2023-04-25T01:08:31;19.20;;;7.47;;
42904;SDS011;28550;51.228;4.528;2023-04-25T01:10:57;14.70;;;6.28;;
42904;SDS011;28550;51.228;4.528;2023-04-25T01:13:23;24.10;;;8.65;;
42904;SDS011;28550;51.228;4.528;2023-04-25T01:15:49;16.33;;;6.38;;
42904;SDS011;28550;51.228;4.528;2023-04-25T01:18:21;19.88;;;7.65;;
42904;SDS011;28550;51.228;4.528;2023-04-25T01:20:54;22.05;;;7.78;;
42904;SDS011;28550;51.228;4.528;2023-04-25T01:23:31;21.48;;;7.05;;
42904;SDS011;28550;51.228;4.528;2023-04-25T01:26:01;17.83;;;6.10;;
42904;SDS011;28550;51.228;4.528;2023-04-25T01:28:32;21.27;;;6.85;;
42904;SDS011;28550;51.228;4.528;2023-04-25T01:31:08;21.15;;;7.10;;
42904;SDS011;28550;51.228;4.528;2023-04-25T01:33:34;18.88;;;6.68;;
42904;SDS011;28550;51.228;4.528;2023-04-25T01:36:00;22.48;;;7.38;;
42904;SDS011;28550;51.228;4.528;2023-04-25T01:38:26;25.60;;;8.82;;
42904;SDS011;28550;51.228;4.528;2023-04-25T01:40:53;26.02;;;8.77;;
42904;SDS011;28550;51.228;4.528;2023-04-25T01:43:30;25.17;;;8.50;;
42904;SDS011;28550;51.228;4.528;2023-04-25T01:45:56;17.27;;;6.18;;
42904;SDS011;28550;51.228;4.528;2023-04-25T01:48:22;27.30;;;7.65;;
42904;SDS011;28550;51.228;4.528;2023-04-25T01:50:48;22.90;;;7.90;;
42904;SDS011;28550;51.228;4.528;2023-04-25T01:53:14;21.77;;;8.20;;
42904;SDS011;28550;51.228;4.528;2023-04-25T01:55:40;24.23;;;7.43;;
42904;SDS011;28550;51.228;4.528;2023-04-25T01:58:05;16.60;;;7.50;;
42904;SDS011;28550;51.228;4.528;2023-04-25T02:00:38;21.48;;;6.47;;
42904;SDS011;28550;51.228;4.528;2023-04-25T02:03:06;24.08;;;7.22;;
42904;SDS011;28550;51.228;4.528;2023-04-25T02:05:37;27.85;;;7.85;;
42904;SDS011;28550;51.228;4.528;2023-04-25T02:08:08;22.92;;;6.20;;
42904;SDS011;28550;51.228;4.528;2023-04-25T02:10:35;23.17;;;7.78;;
42904;SDS011;28550;51.228;4.528;2023-04-25T02:13:04;28.02;;;7.22;;
42904;SDS011;28550;51.228;4.528;2023-04-25T02:15:30;24.70;;;7.65;;
42904;SDS011;28550;51.228;4.528;2023-04-25T02:18:05;32.47;;;6.78;;
42904;SDS011;28550;51.228;4.528;2023-04-25T02:20:35;29.70;;;7.80;;
42904;SDS011;28550;51.228;4.528;2023-04-25T02:23:08;21.45;;;6.72;;
42904;SDS011;28550;51.228;4.528;2023-04-25T02:25:33;19.50;;;7.22;;
42904;SDS011;28550;51.228;4.528;2023-04-25T02:27:59;23.63;;;6.75;;
42904;SDS011;28550;51.228;4.528;2023-04-25T02:30:25;23.23;;;6.90;;
42904;SDS011;28550;51.228;4.528;2023-04-25T02:32:54;21.15;;;7.03;;
42904;SDS011;28550;51.228;4.528;2023-04-25T02:35:20;26.05;;;7.55;;
42904;SDS011;28550;51.228;4.528;2023-04-25T02:37:46;20.40;;;7.57;;
42904;SDS011;28550;51.228;4.528;2023-04-25T02:40:13;19.02;;;7.30;;
42904;SDS011;28550;51.228;4.528;2023-04-25T02:42:39;24.75;;;7.53;;
42904;SDS011;28550;51.228;4.528;2023-04-25T02:45:09;27.80;;;8.25;;
42904;SDS011;28550;51.228;4.528;2023-04-25T02:47:35;18.85;;;7.30;;
42904;SDS011;28550;51.228;4.528;2023-04-25T02:50:01;22.83;;;7.80;;
42904;SDS011;28550;51.228;4.528;2023-04-25T02:52:27;19.92;;;7.35;;
42904;SDS011;28550;51.228;4.528;2023-04-25T02:54:53;21.98;;;7.15;;
42904;SDS011;28550;51.228;4.528;2023-04-25T02:57:18;19.20;;;7.25;;
42904;SDS011;28550;51.228;4.528;2023-04-25T02:59:44;24.60;;;7.15;;
42904;SDS011;28550;51.228;4.528;2023-04-25T03:02:10;18.52;;;8.05;;
42904;SDS011;28550;51.228;4.528;2023-04-25T03:04:42;18.80;;;7.75;;
42904;SDS011;28550;51.228;4.528;2023-04-25T03:07:09;23.08;;;7.88;;
42904;SDS011;28550;51.228;4.528;2023-04-25T03:09:39;20.80;;;8.60;;
42904;SDS011;28550;51.228;4.528;2023-04-25T03:12:05;22.90;;;6.70;;
42904;SDS011;28550;51.228;4.528;2023-04-25T03:14:35;20.98;;;8.15;;
42904;SDS011;28550;51.228;4.528;2023-04-25T03:17:01;29.40;;;7.55;;
42904;SDS011;28550;51.228;4.528;2023-04-25T03:19:30;24.88;;;8.20;;
42904;SDS011;28550;51.228;4.528;2023-04-25T03:21:55;23.90;;;9.73;;
42904;SDS011;28550;51.228;4.528;2023-04-25T03:24:22;23.45;;;7.85;;
42904;SDS011;28550;51.228;4.528;2023-04-25T03:26:54;18.48;;;7.63;;
42904;SDS011;28550;51.228;4.528;2023-04-25T03:29:19;17.15;;;7.53;;
42904;SDS011;28550;51.228;4.528;2023-04-25T03:31:50;22.55;;;7.72;;
42904;SDS011;28550;51.228;4.528;2023-04-25T03:34:19;30.98;;;7.97;;
42904;SDS011;28550;51.228;4.528;2023-04-25T03:36:49;23.58;;;8.63;;
42904;SDS011;28550;51.228;4.528;2023-04-25T03:39:15;28.13;;;9.55;;
42904;SDS011;28550;51.228;4.528;2023-04-25T03:41:41;20.05;;;7.72;;
42904;SDS011;28550;51.228;4.528;2023-04-25T03:47:00;28.48;;;8.30;;
42904;SDS011;28550;51.228;4.528;2023-04-25T03:49:29;28.25;;;8.68;;
42904;SDS011;28550;51.228;4.528;2023-04-25T03:51:55;24.17;;;7.90;;
42904;SDS011;28550;51.228;4.528;2023-04-25T03:54:24;18.92;;;7.45;;
42904;SDS011;28550;51.228;4.528;2023-04-25T03:56:50;22.50;;;8.80;;
42904;SDS011;28550;51.228;4.528;2023-04-25T03:59:18;24.48;;;7.28;;
42904;SDS011;28550;51.228;4.528;2023-04-25T04:01:44;29.30;;;8.85;;
42904;SDS011;28550;51.228;4.528;2023-04-25T04:04:11;29.70;;;9.18;;
42904;SDS011;28550;51.228;4.528;2023-04-25T04:06:38;28.63;;;7.85;;
42904;SDS011;28550;51.228;4.528;2023-04-25T04:09:04;24.60;;;8.43;;
42904;SDS011;28550;51.228;4.528;2023-04-25T04:11:35;25.95;;;7.75;;
42904;SDS011;28550;51.228;4.528;2023-04-25T04:14:01;26.55;;;7.97;;
42904;SDS011;28550;51.228;4.528;2023-04-25T04:16:27;19.80;;;6.75;;
42904;SDS011;28550;51.228;4.528;2023-04-25T04:18:55;31.83;;;8.15;;
42904;SDS011;28550;51.228;4.528;2023-04-25T04:21:20;19.33;;;7.78;;
42904;SDS011;28550;51.228;4.528;2023-04-25T04:23:53;19.92;;;6.97;;
42904;SDS011;28550;51.228;4.528;2023-04-25T04:26:22;26.20;;;7.45;;
42904;SDS011;28550;51.228;4.528;2023-04-25T04:28:57;26.70;;;7.63;;
42904;SDS011;28550;51.228;4.528;2023-04-25T04:31:25;26.55;;;6.80;;
42904;SDS011;28550;51.228;4.528;2023-04-25T04:33:58;15.63;;;7.25;;
42904;SDS011;28550;51.228;4.528;2023-04-25T04:36:24;17.73;;;6.70;;
42904;SDS011;28550;51.228;4.528;2023-04-25T04:38:51;22.50;;;7.13;;
42904;SDS011;28550;51.228;4.528;2023-04-25T04:41:18;21.70;;;7.55;;
42904;SDS011;28550;51.228;4.528;2023-04-25T04:46:27;28.00;;;7.68;;
42904;SDS011;28550;51.228;4.528;2023-04-25T04:48:53;15.00;;;6.18;;
42904;SDS011;28550;51.228;4.528;2023-04-25T04:51:19;13.70;;;6.82;;
42904;SDS011;28550;51.228;4.528;2023-04-25T04:53:49;26.75;;;8.02;;
42904;SDS011;28550;51.228;4.528;2023-04-25T04:56:15;14.25;;;6.97;;
42904;SDS011;28550;51.228;4.528;2023-04-25T04:58:48;15.27;;;6.65;;
42904;SDS011;28550;51.228;4.528;2023-04-25T05:01:16;17.67;;;6.03;;
42904;SDS011;28550;51.228;4.528;2023-04-25T05:03:54;19.55;;;6.68;;
42904;SDS011;28550;51.228;4.528;2023-04-25T05:06:30;20.00;;;6.05;;
42904;SDS011;28550;51.228;4.528;2023-04-25T05:08:58;16.38;;;6.68;;
42904;SDS011;28550;51.228;4.528;2023-04-25T05:11:24;19.63;;;6.15;;
42904;SDS011;28550;51.228;4.528;2023-04-25T05:14:12;15.60;;;7.07;;
42904;SDS011;28550;51.228;4.528;2023-04-25T05:16:37;21.05;;;6.75;;
42904;SDS011;28550;51.228;4.528;2023-04-25T05:19:04;18.08;;;6.60;;
42904;SDS011;28550;51.228;4.528;2023-04-25T05:21:37;22.30;;;6.88;;
42904;SDS011;28550;51.228;4.528;2023-04-25T05:24:14;22.65;;;7.20;;
42904;SDS011;28550;51.228;4.528;2023-04-25T05:26:41;20.88;;;6.25;;
42904;SDS011;28550;51.228;4.528;2023-04-25T05:29:10;18.35;;;5.85;;
42904;SDS011;28550;51.228;4.528;2023-04-25T05:31:42;17.85;;;7.15;;
42904;SDS011;28550;51.228;4.528;2023-04-25T05:34:18;17.27;;;6.22;;
42904;SDS011;28550;51.228;4.528;2023-04-25T05:37:00;14.57;;;6.72;;
42904;SDS011;28550;51.228;4.528;2023-04-25T05:39:35;22.30;;;8.07;;
42904;SDS011;28550;51.228;4.528;2023-04-25T05:42:09;16.55;;;6.63;;
42904;SDS011;28550;51.228;4.528;2023-04-25T05:44:41;22.90;;;6.82;;
42904;SDS011;28550;51.228;4.528;2023-04-25T05:47:28;12.55;;;5.25;;
42904;SDS011;28550;51.228;4.528;2023-04-25T05:50:14;15.43;;;5.65;;
42904;SDS011;28550;51.228;4.528;2023-04-25T05:52:40;13.20;;;5.30;;
42904;SDS011;28550;51.228;4.528;2023-04-25T05:55:07;30.63;;;6.97;;
42904;SDS011;28550;51.228;4.528;2023-04-25T05:57:34;21.73;;;6.82;;
42904;SDS011;28550;51.228;4.528;2023-04-25T06:00:00;14.88;;;6.13;;
42904;SDS011;28550;51.228;4.528;2023-04-25T06:02:27;15.75;;;6.13;;
42904;SDS011;28550;51.228;4.528;2023-04-25T06:04:52;18.58;;;7.03;;
42904;SDS011;28550;51.228;4.528;2023-04-25T06:07:18;15.20;;;6.15;;
42904;SDS011;28550;51.228;4.528;2023-04-25T06:09:59;16.63;;;6.00;;
42904;SDS011;28550;51.228;4.528;2023-04-25T06:12:34;16.67;;;5.75;;
42904;SDS011;28550;51.228;4.528;2023-04-25T06:15:03;19.42;;;6.25;;
42904;SDS011;28550;51.228;4.528;2023-04-25T06:17:33;14.13;;;5.90;;
42904;SDS011;28550;51.228;4.528;2023-04-25T06:20:10;15.95;;;5.25;;
42904;SDS011;28550;51.228;4.528;2023-04-25T06:22:36;15.90;;;4.88;;
42904;SDS011;28550;51.228;4.528;2023-04-25T06:25:02;13.50;;;5.03;;
42904;SDS011;28550;51.228;4.528;2023-04-25T06:27:29;13.55;;;4.72;;
42904;SDS011;28550;51.228;4.528;2023-04-25T06:29:55;13.23;;;4.57;;
42904;SDS011;28550;51.228;4.528;2023-04-25T06:32:21;11.88;;;4.45;;
42904;SDS011;28550;51.228;4.528;2023-04-25T06:34:46;6.05;;;3.42;;
42904;SDS011;28550;51.228;4.528;2023-04-25T06:37:12;10.80;;;3.90;;
42904;SDS011;28550;51.228;4.528;2023-04-25T06:39:41;13.52;;;4.15;;
42904;SDS011;28550;51.228;4.528;2023-04-25T06:42:09;16.98;;;4.43;;
42904;SDS011;28550;51.228;4.528;2023-04-25T06:44:38;13.15;;;4.70;;
42904;SDS011;28550;51.228;4.528;2023-04-25T06:47:05;10.25;;;3.53;;
42904;SDS011;28550;51.228;4.528;2023-04-25T06:49:33;12.40;;;3.45;;
42904;SDS011;28550;51.228;4.528;2023-04-25T06:51:59;13.98;;;4.70;;
42904;SDS011;28550;51.228;4.528;2023-04-25T06:54:24;8.20;;;3.85;;
42904;SDS011;28550;51.228;4.528;2023-04-25T06:56:53;12.05;;;4.38;;
42904;SDS011;28550;51.228;4.528;2023-04-25T06:59:20;8.38;;;4.18;;
42904;SDS011;28550;51.228;4.528;2023-04-25T07:01:46;11.80;;;3.65;;
42904;SDS011;28550;51.228;4.528;2023-04-25T07:04:19;9.32;;;3.28;;
42904;SDS011;28550;51.228;4.528;2023-04-25T07:06:45;11.07;;;3.75;;
42904;SDS011;28550;51.228;4.528;2023-04-25T07:09:13;9.05;;;3.22;;
42904;SDS011;28550;51.228;4.528;2023-04-25T07:11:38;11.32;;;3.47;;
42904;SDS011;28550;51.228;4.528;2023-04-25T07:14:05;11.50;;;3.08;;
42904;SDS011;28550;51.228;4.528;2023-04-25T07:16:31;11.93;;;3.45;;
42904;SDS011;28550;51.228;4.528;2023-04-25T07:18:57;19.10;;;4.50;;
42904;SDS011;28550;51.228;4.528;2023-04-25T07:21:22;11.38;;;3.25;;
42904;SDS011;28550;51.228;4.528;2023-04-25T07:23:48;11.88;;;3.33;;
42904;SDS011;28550;51.228;4.528;2023-04-25T07:26:23;8.63;;;3.85;;
42904;SDS011;28550;51.228;4.528;2023-04-25T07:29:08;9.57;;;2.95;;
42904;SDS011;28550;51.228;4.528;2023-04-25T07:31:34;12.02;;;2.67;;
42904;SDS011;28550;51.228;4.528;2023-04-25T07:34:00;6.50;;;2.83;;
42904;SDS011;28550;51.228;4.528;2023-04-25T07:36:26;8.90;;;3.20;;
42904;SDS011;28550;51.228;4.528;2023-04-25T07:38:53;9.63;;;2.45;;
42904;SDS011;28550;51.228;4.528;2023-04-25T07:44:25;6.53;;;2.75;;
42904;SDS011;28550;51.228;4.528;2023-04-25T07:46:51;11.60;;;2.67;;
42904;SDS011;28550;51.228;4.528;2023-04-25T07:52:06;11.73;;;2.95;;
42904;SDS011;28550;51.228;4.528;2023-04-25T07:54:34;10.50;;;3.33;;
42904;SDS011;28550;51.228;4.528;2023-04-25T07:57:00;7.43;;;3.25;;
42904;SDS011;28550;51.228;4.528;2023-04-25T07:59:28;14.55;;;3.35;;
42904;SDS011;28550;51.228;4.528;2023-04-25T08:02:01;10.52;;;3.90;;
42904;SDS011;28550;51.228;4.528;2023-04-25T08:10:20;13.75;;;3.70;;
42904;SDS011;28550;51.228;4.528;2023-04-25T08:12:48;12.85;;;3.30;;
42904;SDS011;28550;51.228;4.528;2023-04-25T08:15:19;9.95;;;3.08;;
42904;SDS011;28550;51.228;4.528;2023-04-25T08:17:45;7.88;;;3.05;;
42904;SDS011;28550;51.228;4.528;2023-04-25T08:20:13;7.85;;;3.33;;
42904;SDS011;28550;51.228;4.528;2023-04-25T08:22:39;11.40;;;3.40;;
42904;SDS011;28550;51.228;4.528;2023-04-25T08:25:05;12.55;;;3.25;;
42904;SDS011;28550;51.228;4.528;2023-04-25T08:27:43;5.10;;;2.70;;
42904;SDS011;28550;51.228;4.528;2023-04-25T08:30:29;8.15;;;3.10;;
42904;SDS011;28550;51.228;4.528;2023-04-25T08:32:58;7.35;;;3.05;;
42904;SDS011;28550;51.228;4.528;2023-04-25T08:35:42;10.63;;;3.25;;
42904;SDS011;28550;51.228;4.528;2023-04-25T08:40:48;11.07;;;2.78;;
42904;SDS011;28550;51.228;4.528;2023-04-25T08:43:18;7.13;;;3.05;;
42904;SDS011;28550;51.228;4.528;2023-04-25T08:45:46;7.07;;;2.78;;
42904;SDS011;28550;51.228;4.528;2023-04-25T08:48:13;10.70;;;3.05;;
42904;SDS011;28550;51.228;4.528;2023-04-25T08:50:52;12.35;;;3.03;;
42904;SDS011;28550;51.228;4.528;2023-04-25T08:54:10;9.95;;;3.42;;
42904;SDS011;28550;51.228;4.528;2023-04-25T08:56:47;14.55;;;3.42;;
42904;SDS011;28550;51.228;4.528;2023-04-25T08:59:13;11.57;;;3.28;;
42904;SDS011;28550;51.228;4.528;2023-04-25T09:01:39;10.45;;;3.35;;
42904;SDS011;28550;51.228;4.528;2023-04-25T09:04:05;8.55;;;2.95;;
42904;SDS011;28550;51.228;4.528;2023-04-25T09:06:31;10.05;;;3.20;;
42904;SDS011;28550;51.228;4.528;2023-04-25T09:09:06;7.65;;;2.65;;
42904;SDS011;28550;51.228;4.528;2023-04-25T09:11:58;6.30;;;2.90;;
42904;SDS011;28550;51.228;4.528;2023-04-25T09:14:28;9.35;;;2.20;;
42904;SDS011;28550;51.228;4.528;2023-04-25T09:19:30;5.65;;;2.30;;
42904;SDS011;28550;51.228;4.528;2023-04-25T09:22:09;11.30;;;2.33;;
42904;SDS011;28550;51.228;4.528;2023-04-25T09:24:52;4.47;;;2.00;;
42904;SDS011;28550;51.228;4.528;2023-04-25T09:27:19;6.05;;;2.13;;
42904;SDS011;28550;51.228;4.528;2023-04-25T09:30:06;5.57;;;2.30;;
42904;SDS011;28550;51.228;4.528;2023-04-25T09:32:43;3.63;;;1.70;;
42904;SDS011;28550;51.228;4.528;2023-04-25T09:35:09;5.75;;;1.70;;
42904;SDS011;28550;51.228;4.528;2023-04-25T09:37:36;6.53;;;1.85;;
42904;SDS011;28550;51.228;4.528;2023-04-25T09:53:29;5.13;;;2.20;;
42904;SDS011;28550;51.228;4.528;2023-04-25T09:55:57;6.18;;;2.17;;
42904;SDS011;28550;51.228;4.528;2023-04-25T09:58:36;6.57;;;2.20;;
42904;SDS011;28550;51.228;4.528;2023-04-25T10:01:06;7.15;;;2.33;;
42904;SDS011;28550;51.228;4.528;2023-04-25T10:03:34;7.20;;;2.38;;
42904;SDS011;28550;51.228;4.528;2023-04-25T10:06:02;6.70;;;1.63;;
42904;SDS011;28550;51.228;4.528;2023-04-25T10:08:33;4.72;;;1.67;;
42904;SDS011;28550;51.228;4.528;2023-04-25T10:11:03;10.30;;;2.35;;
42904;SDS011;28550;51.228;4.528;2023-04-25T10:13:34;5.35;;;2.08;;
42904;SDS011;28550;51.228;4.528;2023-04-25T10:18:41;3.90;;;1.60;;
42904;SDS011;28550;51.228;4.528;2023-04-25T10:21:07;5.65;;;2.15;;
42904;SDS011;28550;51.228;4.528;2023-04-25T10:23:33;4.55;;;1.85;;
42904;SDS011;28550;51.228;4.528;2023-04-25T10:34:44;5.70;;;2.50;;
42904;SDS011;28550;51.228;4.528;2023-04-25T10:43:58;6.40;;;1.85;;
42904;SDS011;28550;51.228;4.528;2023-04-25T10:45:57;4.53;;;1.83;;
42904;SDS011;28550;51.228;4.528;2023-04-25T10:48:25;5.90;;;1.63;;
42904;SDS011;28550;51.228;4.528;2023-04-25T10:51:08;4.05;;;1.85;;
42904;SDS011;28550;51.228;4.528;2023-04-25T10:53:43;7.43;;;1.60;;
42904;SDS011;28550;51.228;4.528;2023-04-25T10:56:18;3.75;;;1.73;;
42904;SDS011;28550;51.228;4.528;2023-04-25T10:58:46;7.60;;;1.98;;
42904;SDS011;28550;51.228;4.528;2023-04-25T11:01:13;19.35;;;3.65;;
42904;SDS011;28550;51.228;4.528;2023-04-25T11:03:41;9.32;;;2.20;;
42904;SDS011;28550;51.228;4.528;2023-04-25T11:08:49;7.38;;;2.00;;
42904;SDS011;28550;51.228;4.528;2023-04-25T11:11:16;8.30;;;1.80;;
42904;SDS011;28550;51.228;4.528;2023-04-25T11:13:43;10.40;;;2.60;;
42904;SDS011;28550;51.228;4.528;2023-04-25T11:16:11;44.70;;;6.70;;
42904;SDS011;28550;51.228;4.528;2023-04-25T11:18:42;10.45;;;2.53;;
42904;SDS011;28550;51.228;4.528;2023-04-25T11:21:09;7.35;;;2.50;;
42904;SDS011;28550;51.228;4.528;2023-04-25T11:23:35;8.45;;;2.22;;
42904;SDS011;28550;51.228;4.528;2023-04-25T11:26:02;5.72;;;2.05;;
42904;SDS011;28550;51.228;4.528;2023-04-25T11:28:28;6.13;;;1.90;;
42904;SDS011;28550;51.228;4.528;2023-04-25T11:30:55;7.65;;;2.13;;
42904;SDS011;28550;51.228;4.528;2023-04-25T11:36:10;3.88;;;1.70;;
42904;SDS011;28550;51.228;4.528;2023-04-25T11:38:36;8.32;;;1.77;;
42904;SDS011;28550;51.228;4.528;2023-04-25T11:41:02;3.83;;;1.90;;
42904;SDS011;28550;51.228;4.528;2023-04-25T11:43:28;7.07;;;1.70;;
42904;SDS011;28550;51.228;4.528;2023-04-25T11:45:56;3.90;;;1.10;;
42904;SDS011;28550;51.228;4.528;2023-04-25T11:48:22;3.20;;;1.38;;
42904;SDS011;28550;51.228;4.528;2023-04-25T11:50:48;2.67;;;1.63;;
42904;SDS011;28550;51.228;4.528;2023-04-25T11:53:14;4.25;;;1.55;;
42904;SDS011;28550;51.228;4.528;2023-04-25T11:55:43;3.50;;;1.65;;
42904;SDS011;28550;51.228;4.528;2023-04-25T11:58:08;5.45;;;1.45;;
42904;SDS011;28550;51.228;4.528;2023-04-25T12:00:34;7.78;;;1.48;;
42904;SDS011;28550;51.228;4.528;2023-04-25T12:03:00;5.55;;;1.65;;
42904;SDS011;28550;51.228;4.528;2023-04-25T12:05:28;4.13;;;1.42;;
42904;SDS011;28550;51.228;4.528;2023-04-25T12:07:55;3.70;;;1.38;;
42904;SDS011;28550;51.228;4.528;2023-04-25T12:10:21;6.15;;;1.70;;
42904;SDS011;28550;51.228;4.528;2023-04-25T12:12:49;4.85;;;1.50;;
42904;SDS011;28550;51.228;4.528;2023-04-25T12:15:15;5.65;;;1.98;;
42904;SDS011;28550;51.228;4.528;2023-04-25T12:17:45;4.93;;;1.52;;
42904;SDS011;28550;51.228;4.528;2023-04-25T12:20:16;6.28;;;1.65;;
42904;SDS011;28550;51.228;4.528;2023-04-25T12:22:45;3.97;;;1.40;;
42904;SDS011;28550;51.228;4.528;2023-04-25T12:28:36;3.25;;;1.30;;
42904;SDS011;28550;51.228;4.528;2023-04-25T12:31:05;4.32;;;1.67;;
42904;SDS011;28550;51.228;4.528;2023-04-25T12:33:35;3.88;;;1.20;;
42904;SDS011;28550;51.228;4.528;2023-04-25T12:36:03;5.13;;;1.30;;
42904;SDS011;28550;51.228;4.528;2023-04-25T12:38:38;2.10;;;1.42;;
42904;SDS011;28550;51.228;4.528;2023-04-25T12:41:05;4.53;;;1.30;;
42904;SDS011;28550;51.228;4.528;2023-04-25T12:43:47;3.30;;;1.20;;
42904;SDS011;28550;51.228;4.528;2023-04-25T12:46:15;2.72;;;1.08;;
42904;SDS011;28550;51.228;4.528;2023-04-25T12:48:41;3.22;;;1.30;;
42904;SDS011;28550;51.228;4.528;2023-04-25T12:51:07;6.07;;;1.70;;
42904;SDS011;28550;51.228;4.528;2023-04-25T12:53:33;4.03;;;1.50;;
42904;SDS011;28550;51.228;4.528;2023-04-25T12:56:02;8.75;;;1.95;;
42904;SDS011;28550;51.228;4.528;2023-04-25T12:58:43;4.28;;;1.50;;
42904;SDS011;28550;51.228;4.528;2023-04-25T13:01:17;6.07;;;2.03;;
42904;SDS011;28550;51.228;4.528;2023-04-25T13:03:43;5.78;;;1.92;;
42904;SDS011;28550;51.228;4.528;2023-04-25T13:06:10;4.38;;;1.63;;
42904;SDS011;28550;51.228;4.528;2023-04-25T13:08:37;7.13;;;2.10;;
42904;SDS011;28550;51.228;4.528;2023-04-25T13:11:04;5.82;;;1.52;;
42904;SDS011;28550;51.228;4.528;2023-04-25T13:13:31;3.17;;;1.52;;
42904;SDS011;28550;51.228;4.528;2023-04-25T13:15:59;2.97;;;1.20;;
42904;SDS011;28550;51.228;4.528;2023-04-25T13:18:28;2.47;;;1.33;;
42904;SDS011;28550;51.228;4.528;2023-04-25T13:20:55;3.92;;;1.50;;
42904;SDS011;28550;51.228;4.528;2023-04-25T13:23:21;5.65;;;2.03;;
42904;SDS011;28550;51.228;4.528;2023-04-25T13:25:47;7.40;;;1.70;;
42904;SDS011;28550;51.228;4.528;2023-04-25T13:28:13;4.75;;;1.33;;
42904;SDS011;28550;51.228;4.528;2023-04-25T13:30:39;3.28;;;1.63;;
42904;SDS011;28550;51.228;4.528;2023-04-25T13:33:06;4.82;;;1.48;;
42904;SDS011;28550;51.228;4.528;2023-04-25T13:35:32;6.50;;;1.63;;
42904;SDS011;28550;51.228;4.528;2023-04-25T13:38:01;2.92;;;1.30;;
42904;SDS011;28550;51.228;4.528;2023-04-25T13:40:27;4.03;;;1.23;;
42904;SDS011;28550;51.228;4.528;2023-04-25T13:42:52;5.90;;;2.13;;
42904;SDS011;28550;51.228;4.528;2023-04-25T13:45:19;5.90;;;2.03;;
42904;SDS011;28550;51.228;4.528;2023-04-25T13:47:45;7.93;;;1.80;;
42904;SDS011;28550;51.228;4.528;2023-04-25T13:52:36;4.18;;;1.88;;
42904;SDS011;28550;51.228;4.528;2023-04-25T13:55:02;5.55;;;1.90;;
42904;SDS011;28550;51.228;4.528;2023-04-25T13:57:30;7.93;;;1.88;;
42904;SDS011;28550;51.228;4.528;2023-04-25T13:59:56;5.28;;;1.75;;
42904;SDS011;28550;51.228;4.528;2023-04-25T14:02:22;8.00;;;2.53;;
42904;SDS011;28550;51.228;4.528;2023-04-25T14:04:48;7.80;;;1.73;;
42904;SDS011;28550;51.228;4.528;2023-04-25T14:07:14;4.45;;;1.77;;
42904;SDS011;28550;51.228;4.528;2023-04-25T14:09:43;3.95;;;1.63;;
42904;SDS011;28550;51.228;4.528;2023-04-25T14:12:10;5.63;;;1.48;;
42904;SDS011;28550;51.228;4.528;2023-04-25T14:14:36;4.57;;;1.50;;
42904;SDS011;28550;51.228;4.528;2023-04-25T14:17:03;7.95;;;1.98;;
42904;SDS011;28550;51.228;4.528;2023-04-25T14:19:29;6.47;;;1.60;;
42904;SDS011;28550;51.228;4.528;2023-04-25T14:21:55;2.88;;;1.42;;
42904;SDS011;28550;51.228;4.528;2023-04-25T14:24:21;7.07;;;1.92;;
42904;SDS011;28550;51.228;4.528;2023-04-25T14:26:46;4.68;;;1.23;;
42904;SDS011;28550;51.228;4.528;2023-04-25T14:29:12;5.22;;;1.67;;
42904;SDS011;28550;51.228;4.528;2023-04-25T14:31:41;6.35;;;1.63;;
42904;SDS011;28550;51.228;4.528;2023-04-25T14:36:57;6.03;;;1.92;;
42904;SDS011;28550;51.228;4.528;2023-04-25T14:39:24;4.47;;;1.88;;
42904;SDS011;28550;51.228;4.528;2023-04-25T14:41:55;5.68;;;1.58;;
42904;SDS011;28550;51.228;4.528;2023-04-25T14:44:22;5.22;;;1.60;;
42904;SDS011;28550;51.228;4.528;2023-04-25T14:46:56;3.72;;;1.60;;
42904;SDS011;28550;51.228;4.528;2023-04-25T14:49:34;6.82;;;1.75;;
42904;SDS011;28550;51.228;4.528;2023-04-25T14:52:07;3.67;;;1.65;;
42904;SDS011;28550;51.228;4.528;2023-04-25T14:54:37;8.40;;;1.95;;
42904;SDS011;28550;51.228;4.528;2023-04-25T14:57:47;5.10;;;1.65;;
42904;SDS011;28550;51.228;4.528;2023-04-25T15:04:02;8.70;;;1.85;;
42904;SDS011;28550;51.228;4.528;2023-04-25T15:07:04;5.72;;;1.88;;
42904;SDS011;28550;51.228;4.528;2023-04-25T15:12:49;4.68;;;1.48;;
42904;SDS011;28550;51.228;4.528;2023-04-25T15:15:19;4.45;;;1.65;;
42904;SDS011;28550;51.228;4.528;2023-04-25T15:17:45;7.05;;;1.83;;
42904;SDS011;28550;51.228;4.528;2023-04-25T15:20:34;3.08;;;1.27;;
42904;SDS011;28550;51.228;4.528;2023-04-25T15:23:03;6.32;;;1.42;;
42904;SDS011;28550;51.228;4.528;2023-04-25T15:25:51;7.20;;;2.00;;
42904;SDS011;28550;51.228;4.528;2023-04-25T15:28:23;4.32;;;1.85;;
42904;SDS011;28550;51.228;4.528;2023-04-25T15:30:51;6.53;;;2.10;;
42904;SDS011;28550;51.228;4.528;2023-04-25T15:33:26;8.65;;;1.77;;
42904;SDS011;28550;51.228;4.528;2023-04-25T15:35:52;8.30;;;1.80;;
42904;SDS011;28550;51.228;4.528;2023-04-25T15:38:43;4.07;;;1.80;;
42904;SDS011;28550;51.228;4.528;2023-04-25T15:41:12;8.50;;;3.20;;
42904;SDS011;28550;51.228;4.528;2023-04-25T15:43:51;4.80;;;1.83;;
42904;SDS011;28550;51.228;4.528;2023-04-25T15:46:20;3.38;;;1.63;;
42904;SDS011;28550;51.228;4.528;2023-04-25T15:48:48;4.78;;;1.95;;
42904;SDS011;28550;51.228;4.528;2023-04-25T15:51:16;5.53;;;1.83;;
42904;SDS011;28550;51.228;4.528;2023-04-25T15:53:52;3.55;;;1.85;;
42904;SDS011;28550;51.228;4.528;2023-04-25T15:56:29;5.63;;;1.83;;
42904;SDS011;28550;51.228;4.528;2023-04-25T15:59:07;5.38;;;1.63;;
42904;SDS011;28550;51.228;4.528;2023-04-25T16:01:50;7.60;;;2.30;;
42904;SDS011;28550;51.228;4.528;2023-04-25T16:04:16;4.57;;;1.80;;
42904;SDS011;28550;51.228;4.528;2023-04-25T16:06:54;3.95;;;2.13;;
42904;SDS011;28550;51.228;4.528;2023-04-25T16:09:26;7.20;;;2.08;;
42904;SDS011;28550;51.228;4.528;2023-04-25T16:12:12;7.15;;;1.90;;
42904;SDS011;28550;51.228;4.528;2023-04-25T16:14:40;5.45;;;2.08;;